createdAt,value
2019-02-18T00:01:21.566Z,10.70
2019-02-18T00:03:50.810Z,12.77
2019-02-18T00:06:20.104Z,11.67
2019-02-18T00:08:49.542Z,13.00
2019-02-18T00:11:18.832Z,9.93
2019-02-18T00:13:48.151Z,10.40
2019-02-18T00:16:17.536Z,10.27
2019-02-18T00:18:46.860Z,9.23
2019-02-18T00:21:16.102Z,11.00
2019-02-18T00:23:45.361Z,9.90
2019-02-18T00:26:14.646Z,8.77
2019-02-18T00:28:43.973Z,8.97
2019-02-18T00:31:13.266Z,8.77
2019-02-18T00:33:42.540Z,9.67
2019-02-18T00:36:11.813Z,10.07
2019-02-18T00:38:41.052Z,8.47
2019-02-18T00:41:10.325Z,8.37
2019-02-18T00:43:39.625Z,10.50
2019-02-18T00:46:08.924Z,9.73
2019-02-18T00:48:38.239Z,11.33
2019-02-18T00:51:07.548Z,10.17
2019-02-18T00:53:36.885Z,10.60
2019-02-18T00:56:06.250Z,10.73
2019-02-18T00:58:35.609Z,11.63
2019-02-18T01:01:04.963Z,10.60
2019-02-18T01:03:34.251Z,12.70
2019-02-18T01:06:03.549Z,13.43
2019-02-18T01:08:32.785Z,11.80
2019-02-18T01:11:02.154Z,10.80
2019-02-18T01:13:31.446Z,12.30
2019-02-18T01:16:00.733Z,10.03
2019-02-18T01:18:30.008Z,10.30
2019-02-18T01:20:59.297Z,10.47
2019-02-18T01:23:28.587Z,11.40
2019-02-18T01:25:57.938Z,10.97
2019-02-18T01:28:27.247Z,10.77
2019-02-18T01:30:56.498Z,10.47
2019-02-18T01:33:25.783Z,11.27
2019-02-18T01:35:55.123Z,10.77
2019-02-18T01:38:24.371Z,12.23
2019-02-18T01:40:53.656Z,12.77
2019-02-18T01:43:22.944Z,11.37
2019-02-18T01:45:52.231Z,11.07
2019-02-18T01:48:21.492Z,10.20
2019-02-18T01:50:50.782Z,10.83
2019-02-18T01:53:20.086Z,10.83
2019-02-18T01:55:49.323Z,10.57
2019-02-18T01:58:18.611Z,9.97
2019-02-18T02:00:47.930Z,10.13
2019-02-18T02:03:17.178Z,10.73
2019-02-18T02:05:46.436Z,12.03
2019-02-18T02:08:15.714Z,10.10
2019-02-18T02:10:44.955Z,10.50
2019-02-18T02:13:36.723Z,9.97
2019-02-18T02:16:11.135Z,9.03
2019-02-18T02:18:40.432Z,10.57
2019-02-18T02:21:09.712Z,10.43
2019-02-18T02:23:38.946Z,9.30
2019-02-18T02:26:08.187Z,10.50
2019-02-18T02:28:37.514Z,9.27
2019-02-18T02:31:06.823Z,10.03
2019-02-18T02:33:36.116Z,7.97
2019-02-18T02:36:05.380Z,10.17
2019-02-18T02:38:34.658Z,10.03
2019-02-18T02:41:04.029Z,8.67
2019-02-18T02:43:33.343Z,8.97
2019-02-18T02:46:02.649Z,8.83
2019-02-18T02:48:31.956Z,8.40
2019-02-18T02:51:01.231Z,7.33
2019-02-18T02:53:30.484Z,10.37
2019-02-18T02:55:59.811Z,9.17
2019-02-18T02:58:29.076Z,9.77
2019-02-18T03:00:58.410Z,8.97
2019-02-18T03:03:27.804Z,8.70
2019-02-18T03:05:57.801Z,9.97
2019-02-18T03:08:27.050Z,8.23
2019-02-18T03:10:56.307Z,10.50
2019-02-18T03:13:25.616Z,9.90
2019-02-18T03:15:54.891Z,8.80
2019-02-18T03:18:24.153Z,9.07
2019-02-18T03:20:53.405Z,8.97
2019-02-18T03:23:22.665Z,7.93
2019-02-18T03:25:53.583Z,8.23
2019-02-18T03:29:05.986Z,8.77
2019-02-18T03:31:35.280Z,7.90
2019-02-18T03:34:15.264Z,8.30
2019-02-18T03:36:44.531Z,8.77
2019-02-18T03:39:13.806Z,10.20
2019-02-18T03:41:43.087Z,10.63
2019-02-18T03:44:12.375Z,8.10
2019-02-18T03:46:41.721Z,10.20
2019-02-18T03:49:11.006Z,10.23
2019-02-18T03:51:40.299Z,8.27
2019-02-18T03:54:09.595Z,10.03
2019-02-18T03:56:38.895Z,9.23
2019-02-18T03:59:08.143Z,10.33
2019-02-18T04:01:37.506Z,9.40
2019-02-18T04:04:07.066Z,8.47
2019-02-18T04:06:36.309Z,8.37
2019-02-18T04:09:06.736Z,11.30
2019-02-18T04:11:35.993Z,8.63
2019-02-18T04:14:05.246Z,8.63
2019-02-18T04:16:34.484Z,9.03
2019-02-18T04:19:03.759Z,8.80
2019-02-18T04:21:33.019Z,7.70
2019-02-18T04:24:02.281Z,12.67
2019-02-18T04:26:31.537Z,8.83
2019-02-18T04:29:00.888Z,9.37
2019-02-18T04:31:30.191Z,10.30
2019-02-18T04:33:59.655Z,9.03
2019-02-18T04:36:28.934Z,9.43
2019-02-18T04:38:58.173Z,8.17
2019-02-18T04:41:27.443Z,9.07
2019-02-18T04:43:56.694Z,9.10
2019-02-18T04:46:26.017Z,9.13
2019-02-18T04:48:55.273Z,9.43
2019-02-18T04:51:24.885Z,10.53
2019-02-18T04:53:54.177Z,8.87
2019-02-18T04:56:23.439Z,9.00
2019-02-18T04:58:52.763Z,9.50
2019-02-18T05:01:22.033Z,10.80
2019-02-18T05:03:51.321Z,11.93
2019-02-18T05:06:20.637Z,9.77
2019-02-18T05:08:49.918Z,9.50
2019-02-18T05:11:18.599Z,8.73
2019-02-18T05:13:47.331Z,9.63
2019-02-18T05:16:16.074Z,11.70
2019-02-18T05:18:45.091Z,10.77
2019-02-18T05:21:13.794Z,11.60
2019-02-18T05:23:42.482Z,9.10
2019-02-18T05:26:11.227Z,9.10
2019-02-18T05:28:39.934Z,9.77
2019-02-18T05:31:08.646Z,9.37
2019-02-18T05:33:37.703Z,10.63
2019-02-18T05:36:06.378Z,11.73
2019-02-18T05:38:35.106Z,13.23
2019-02-18T05:41:03.882Z,11.93
2019-02-18T05:43:32.611Z,14.30
2019-02-18T05:46:01.288Z,12.63
2019-02-18T05:48:30.050Z,10.97
2019-02-18T05:50:58.768Z,13.43
2019-02-18T05:53:27.530Z,9.77
2019-02-18T05:55:56.258Z,13.40
2019-02-18T05:58:24.975Z,11.97
2019-02-18T06:00:53.692Z,14.20
2019-02-18T06:03:22.422Z,10.72
2019-02-18T06:05:51.177Z,13.90
2019-02-18T06:08:19.957Z,11.90
2019-02-18T06:10:48.674Z,10.67
2019-02-18T06:13:17.432Z,12.03
2019-02-18T06:15:46.190Z,12.60
2019-02-18T06:18:14.912Z,11.10
2019-02-18T06:20:43.641Z,12.37
2019-02-18T06:23:12.401Z,11.10
2019-02-18T06:25:41.149Z,12.05
2019-02-18T06:28:09.876Z,10.57
2019-02-18T06:30:39.021Z,14.60
2019-02-18T06:33:07.768Z,11.33
2019-02-18T06:35:36.484Z,13.20
2019-02-18T06:38:06.575Z,9.87
2019-02-18T06:40:35.351Z,10.60
2019-02-18T06:43:04.093Z,11.77
2019-02-18T06:45:44.536Z,11.73
2019-02-18T06:48:25.576Z,11.43
2019-02-18T06:50:54.662Z,11.50
2019-02-18T06:53:23.400Z,11.53
2019-02-18T06:55:52.192Z,11.80
2019-02-18T06:58:35.073Z,13.13
2019-02-18T07:01:14.302Z,18.20
2019-02-18T07:03:59.404Z,9.63
2019-02-18T07:06:38.494Z,10.10
2019-02-18T07:09:29.081Z,8.63
2019-02-18T07:12:22.847Z,10.43
2019-02-18T07:14:51.625Z,10.80
2019-02-18T07:17:21.011Z,10.47
2019-02-18T07:19:50.313Z,10.10
2019-02-18T07:22:19.604Z,9.93
2019-02-18T07:24:48.883Z,10.67
2019-02-18T07:29:53.564Z,9.70
2019-02-18T07:32:22.862Z,10.30
2019-02-18T07:34:52.224Z,10.10
2019-02-18T07:37:21.554Z,12.00
2019-02-18T07:40:01.073Z,10.17
2019-02-18T07:42:23.136Z,11.97
2019-02-18T07:44:54.440Z,9.57
2019-02-18T07:47:24.348Z,13.10
2019-02-18T07:49:53.692Z,9.57
2019-02-18T07:52:23.115Z,9.23
2019-02-18T07:54:52.448Z,9.13
2019-02-18T07:57:23.079Z,9.00
2019-02-18T07:59:52.407Z,10.30
2019-02-18T08:02:21.773Z,9.80
2019-02-18T08:04:51.095Z,9.20
2019-02-18T08:07:20.479Z,11.93
2019-02-18T08:09:49.788Z,9.27
2019-02-18T08:12:19.108Z,10.67
2019-02-18T08:14:48.352Z,11.23
2019-02-18T08:17:17.665Z,10.37
2019-02-18T08:19:46.969Z,11.13
2019-02-18T08:22:16.246Z,10.40
2019-02-18T08:24:45.543Z,15.47
2019-02-18T08:27:14.821Z,9.43
2019-02-18T08:29:44.132Z,8.63
2019-02-18T08:32:13.404Z,12.30
2019-02-18T08:34:42.667Z,11.43
2019-02-18T08:37:11.988Z,10.90
2019-02-18T08:39:41.321Z,12.10
2019-02-18T08:42:10.633Z,19.50
2019-02-18T08:44:39.921Z,11.03
2019-02-18T08:47:09.230Z,10.10
2019-02-18T08:49:38.500Z,10.43
2019-02-18T08:52:07.794Z,10.90
2019-02-18T08:54:37.034Z,10.53
2019-02-18T08:57:06.311Z,9.03
2019-02-18T08:59:35.591Z,13.23
2019-02-18T09:02:04.853Z,8.90
2019-02-18T09:04:34.143Z,15.03
2019-02-18T09:07:03.402Z,14.67
2019-02-18T09:09:32.737Z,8.60
2019-02-18T09:12:02.024Z,10.03
2019-02-18T09:14:31.612Z,11.60
2019-02-18T09:17:00.848Z,10.93
2019-02-18T09:19:30.111Z,9.80
2019-02-18T09:22:21.591Z,11.00
2019-02-18T09:24:57.534Z,10.57
2019-02-18T09:27:26.833Z,11.43
2019-02-18T09:29:56.096Z,7.83
2019-02-18T09:32:25.398Z,9.87
2019-02-18T09:35:01.576Z,9.13
2019-02-18T09:37:25.723Z,9.83
2019-02-18T09:39:55.091Z,9.70
2019-02-18T09:42:26.543Z,12.90
2019-02-18T09:44:55.470Z,9.20
2019-02-18T09:47:25.030Z,9.63
2019-02-18T09:49:54.354Z,11.97
2019-02-18T09:52:23.644Z,9.67
2019-02-18T09:54:53.058Z,20.93
2019-02-18T09:57:22.359Z,9.03
2019-02-18T09:59:51.651Z,9.30
2019-02-18T10:02:21.035Z,10.33
2019-02-18T10:04:50.347Z,11.50
2019-02-18T10:07:19.688Z,9.17
2019-02-18T10:09:48.973Z,8.60
2019-02-18T10:12:18.857Z,10.87
2019-02-18T10:14:48.315Z,9.90
2019-02-18T10:17:17.617Z,10.27
2019-02-18T10:19:46.889Z,8.43
2019-02-18T10:22:16.214Z,11.23
2019-02-18T10:24:50.448Z,10.50
2019-02-18T10:27:16.532Z,8.87
2019-02-18T10:29:45.932Z,6.93
2019-02-18T10:32:15.255Z,8.47
2019-02-18T10:34:44.531Z,9.47
2019-02-18T10:37:13.884Z,8.13
2019-02-18T10:39:43.181Z,10.50
2019-02-18T10:42:12.462Z,9.23
2019-02-18T10:44:42.019Z,11.60
2019-02-18T10:47:11.360Z,8.50
2019-02-18T10:49:40.688Z,7.70
2019-02-18T10:52:10.008Z,9.60
2019-02-18T10:54:39.380Z,10.27
2019-02-18T10:57:08.663Z,9.83
2019-02-18T10:59:37.922Z,9.10
2019-02-18T11:02:07.630Z,7.17
2019-02-18T11:04:36.919Z,8.07
2019-02-18T11:07:06.373Z,6.67
2019-02-18T11:09:35.739Z,6.63
2019-02-18T11:12:05.005Z,7.40
2019-02-18T11:14:34.430Z,9.23
2019-02-18T11:17:03.709Z,9.07
2019-02-18T11:19:33.064Z,10.47
2019-02-18T11:22:02.366Z,9.17
2019-02-18T11:24:31.731Z,8.30
2019-02-18T11:27:01.050Z,8.83
2019-02-18T11:29:30.359Z,8.83
2019-02-18T11:31:59.761Z,9.87
2019-02-18T11:34:29.174Z,10.33
2019-02-18T11:36:58.565Z,8.87
2019-02-18T11:39:28.145Z,7.43
2019-02-18T11:41:57.514Z,7.17
2019-02-18T11:44:26.777Z,8.20
2019-02-18T11:46:56.046Z,6.50
2019-02-18T11:49:25.332Z,7.30
2019-02-18T11:51:54.591Z,7.97
2019-02-18T11:54:23.902Z,9.17
2019-02-18T11:56:53.284Z,8.57
2019-02-18T11:59:24.540Z,7.73
2019-02-18T12:01:53.638Z,8.40
2019-02-18T12:04:22.983Z,8.77
2019-02-18T12:06:52.587Z,11.73
2019-02-18T12:09:21.859Z,8.33
2019-02-18T12:11:51.176Z,7.97
2019-02-18T12:14:20.456Z,7.47
2019-02-18T12:16:49.768Z,11.03
2019-02-18T12:19:19.127Z,8.77
2019-02-18T12:21:48.410Z,8.33
2019-02-18T12:24:18.079Z,8.93
2019-02-18T12:26:47.369Z,9.40
2019-02-18T12:29:25.907Z,11.17
2019-02-18T12:31:47.806Z,9.87
2019-02-18T12:34:17.125Z,11.30
2019-02-18T12:36:46.531Z,9.47
2019-02-18T12:39:15.947Z,9.90
2019-02-18T12:41:48.821Z,8.30
2019-02-18T12:44:16.258Z,9.00
2019-02-18T12:46:45.679Z,9.63
2019-02-18T12:49:14.962Z,9.73
2019-02-18T12:51:44.663Z,9.53
2019-02-18T12:54:14.550Z,10.70
2019-02-18T12:56:43.950Z,11.60
2019-02-18T12:59:14.084Z,9.20
2019-02-18T13:01:43.503Z,9.23
2019-02-18T13:04:12.882Z,10.30
2019-02-18T13:06:42.271Z,9.43
2019-02-18T13:09:11.946Z,8.87
2019-02-18T13:11:41.764Z,12.23
2019-02-18T13:14:11.130Z,9.87
2019-02-18T13:16:40.546Z,9.50
2019-02-18T13:19:09.837Z,8.80
2019-02-18T13:21:39.233Z,8.07
2019-02-18T13:24:08.629Z,11.60
2019-02-18T13:26:38.466Z,10.93
2019-02-18T13:29:07.863Z,10.20
2019-02-18T13:31:37.257Z,8.23
2019-02-18T13:34:06.586Z,9.97
2019-02-18T13:36:35.931Z,11.80
2019-02-18T13:39:06.274Z,7.83
2019-02-18T13:41:36.913Z,6.53
2019-02-18T13:44:06.425Z,6.07
2019-02-18T13:46:35.721Z,6.93
2019-02-18T13:49:05.286Z,8.30
2019-02-18T13:51:34.660Z,8.10
2019-02-18T13:54:03.984Z,10.27
2019-02-18T13:56:33.725Z,9.50
2019-02-18T13:59:03.144Z,7.33
2019-02-18T14:01:32.538Z,9.13
2019-02-18T14:04:01.916Z,7.30
2019-02-18T14:06:31.284Z,5.33
2019-02-18T14:09:00.764Z,5.90
2019-02-18T14:11:30.370Z,7.67
2019-02-18T14:13:59.846Z,4.47
2019-02-18T14:16:29.207Z,5.60
2019-02-18T14:18:58.582Z,4.00
2019-02-18T14:21:27.918Z,3.07
2019-02-18T14:23:57.454Z,5.53
2019-02-18T14:26:26.858Z,4.33
2019-02-18T14:28:56.276Z,3.40
2019-02-18T14:31:25.671Z,2.90
2019-02-18T14:33:55.108Z,3.93
2019-02-18T14:36:24.454Z,3.87
2019-02-18T14:38:53.823Z,4.70
2019-02-18T14:41:23.127Z,2.43
2019-02-18T14:43:52.455Z,3.53
2019-02-18T14:46:21.874Z,6.23
2019-02-18T14:48:51.258Z,6.07
2019-02-18T14:51:20.579Z,4.50
2019-02-18T14:53:49.974Z,2.93
2019-02-18T14:56:20.569Z,5.77
2019-02-18T14:58:49.936Z,3.57
2019-02-18T15:01:19.299Z,3.47
2019-02-18T15:03:48.627Z,3.27
2019-02-18T15:06:17.995Z,2.60
2019-02-18T15:08:48.297Z,3.57
2019-02-18T15:11:17.658Z,2.67
2019-02-18T15:13:46.979Z,4.50
2019-02-18T15:16:16.403Z,4.90
2019-02-18T15:18:45.671Z,4.60
2019-02-18T15:21:14.967Z,3.57
2019-02-18T15:23:44.414Z,5.00
2019-02-18T15:26:13.706Z,3.20
2019-02-18T15:28:43.045Z,4.67
2019-02-18T15:31:14.408Z,3.90
2019-02-18T15:33:43.797Z,3.50
2019-02-18T15:36:13.210Z,4.87
2019-02-18T15:38:42.951Z,7.47
2019-02-18T15:41:12.308Z,4.23
2019-02-18T15:43:41.762Z,4.63
2019-02-18T15:46:11.186Z,4.40
2019-02-18T15:48:40.783Z,3.70
2019-02-18T15:51:10.094Z,3.13
2019-02-18T15:53:39.862Z,4.17
2019-02-18T15:56:09.276Z,6.87
2019-02-18T15:58:38.614Z,4.57
2019-02-18T16:01:07.979Z,4.77
2019-02-18T16:03:37.296Z,3.67
2019-02-18T16:06:06.688Z,3.43
2019-02-18T16:08:36.349Z,5.13
2019-02-18T16:11:05.824Z,4.30
2019-02-18T16:13:35.153Z,4.73
2019-02-18T16:16:04.429Z,20.37
2019-02-18T16:18:33.781Z,4.67
2019-02-18T16:21:03.202Z,6.10
2019-02-18T16:23:32.873Z,6.43
2019-02-18T16:26:02.286Z,5.33
2019-02-18T16:28:31.588Z,5.27
2019-02-18T16:31:00.920Z,5.23
2019-02-18T16:33:30.393Z,6.63
2019-02-18T16:35:59.804Z,3.87
2019-02-18T16:38:29.153Z,4.83
2019-02-18T16:40:58.603Z,6.90
2019-02-18T16:43:28.291Z,5.40
2019-02-18T16:45:57.681Z,7.47
2019-02-18T16:48:27.413Z,8.13
2019-02-18T16:50:57.287Z,5.63
2019-02-18T16:53:26.609Z,6.78
2019-02-18T16:55:55.997Z,5.77
2019-02-18T16:58:25.441Z,6.00
2019-02-18T17:00:57.702Z,9.80
2019-02-18T17:03:27.289Z,6.87
2019-02-18T17:05:56.859Z,6.83
2019-02-18T17:08:26.195Z,6.47
2019-02-18T17:10:55.569Z,7.23
2019-02-18T17:13:24.963Z,5.90
2019-02-18T17:15:54.746Z,6.40
2019-02-18T17:18:24.229Z,7.20
2019-02-18T17:20:54.037Z,7.20
2019-02-18T17:23:23.789Z,5.97
2019-02-18T17:25:53.179Z,7.00
2019-02-18T17:28:22.598Z,5.43
2019-02-18T17:30:51.983Z,6.17
2019-02-18T17:33:21.410Z,8.27
2019-02-18T17:35:51.271Z,5.67
2019-02-18T17:38:20.754Z,8.53
2019-02-18T17:40:50.217Z,6.90
2019-02-18T17:43:19.578Z,8.50
2019-02-18T17:45:48.902Z,8.53
2019-02-18T17:48:18.228Z,6.67
2019-02-18T17:50:48.027Z,5.93
2019-02-18T17:53:17.435Z,5.53
2019-02-18T17:55:46.817Z,7.13
2019-02-18T17:58:16.147Z,6.33
2019-02-18T18:00:47.690Z,5.20
2019-02-18T18:03:17.021Z,6.57
2019-02-18T18:05:46.722Z,5.97
2019-02-18T18:08:16.063Z,7.20
2019-02-18T18:10:45.462Z,7.93
2019-02-18T18:13:14.775Z,7.83
2019-02-18T18:15:44.088Z,7.73
2019-02-18T18:18:13.566Z,6.33
2019-02-18T18:20:42.959Z,5.80
2019-02-18T18:23:12.305Z,6.93
2019-02-18T18:25:41.707Z,5.60
2019-02-18T18:28:11.003Z,5.63
2019-02-18T18:30:40.538Z,8.07
2019-02-18T18:33:09.866Z,6.57
2019-02-18T18:35:39.343Z,10.23
2019-02-18T18:38:08.836Z,7.40
2019-02-18T18:40:38.226Z,7.13
2019-02-18T18:43:07.568Z,8.07
2019-02-18T18:45:36.922Z,7.10
2019-02-18T18:48:06.227Z,5.97
2019-02-18T18:50:35.588Z,9.08
2019-02-18T18:53:06.744Z,6.03
2019-02-18T18:55:36.090Z,5.83
2019-02-18T18:58:05.445Z,6.37
2019-02-18T19:00:34.997Z,5.80
2019-02-18T19:03:04.566Z,7.67
2019-02-18T19:05:33.905Z,5.93
2019-02-18T19:08:03.360Z,6.10
2019-02-18T19:10:32.756Z,7.27
2019-02-18T19:13:02.507Z,9.07
2019-02-18T19:15:31.956Z,8.23
2019-02-18T19:18:01.290Z,10.87
2019-02-18T19:20:30.579Z,9.03
2019-02-18T19:23:00.023Z,7.37
2019-02-18T19:25:29.374Z,7.23
2019-02-18T19:27:58.728Z,7.43
2019-02-18T19:30:28.634Z,10.07
2019-02-18T19:32:58.163Z,8.80
2019-02-18T19:35:27.727Z,7.53
2019-02-18T19:37:57.258Z,7.27
2019-02-18T19:40:26.803Z,11.83
2019-02-18T19:42:56.257Z,9.77
2019-02-18T19:45:26.233Z,9.80
2019-02-18T19:47:55.669Z,8.50
2019-02-18T19:50:25.180Z,11.97
2019-02-18T19:52:54.614Z,9.47
2019-02-18T19:55:25.462Z,8.90
2019-02-18T19:57:55.165Z,9.03
2019-02-18T20:00:24.688Z,6.83
2019-02-18T20:02:54.147Z,8.63
2019-02-18T20:05:23.617Z,13.07
2019-02-18T20:07:53.099Z,7.83
2019-02-18T20:10:22.571Z,7.10
2019-02-18T20:12:52.315Z,7.67
2019-02-18T20:15:21.915Z,7.50
2019-02-18T20:17:51.359Z,9.47
2019-02-18T20:20:20.796Z,7.90
2019-02-18T20:22:50.202Z,8.67
2019-02-18T20:25:19.572Z,7.63
2019-02-18T20:27:49.169Z,6.33
2019-02-18T20:30:18.613Z,6.13
2019-02-18T20:32:47.992Z,6.22
2019-02-18T20:35:20.310Z,9.55
2019-02-18T20:37:49.631Z,9.30
2019-02-18T20:40:19.419Z,9.73
2019-02-18T20:42:49.173Z,8.80
2019-02-18T20:45:18.901Z,6.73
2019-02-18T20:47:49.455Z,7.97
2019-02-18T20:50:19.595Z,8.33
2019-02-18T20:52:49.576Z,10.17
2019-02-18T20:55:19.519Z,8.27
2019-02-18T20:57:49.479Z,6.53
2019-02-18T21:00:19.984Z,8.53
2019-02-18T21:02:49.749Z,10.60
2019-02-18T21:05:19.460Z,8.43
2019-02-18T21:07:49.387Z,13.13
2019-02-18T21:10:19.097Z,10.63
2019-02-18T21:12:48.718Z,11.07
2019-02-18T21:15:18.930Z,7.70
2019-02-18T21:17:48.663Z,8.33
2019-02-18T21:20:18.257Z,8.30
2019-02-18T21:22:48.287Z,8.87
2019-02-18T21:25:17.987Z,11.03
2019-02-18T21:27:47.774Z,9.03
2019-02-18T21:30:17.485Z,8.10
2019-02-18T21:32:47.188Z,9.33
2019-02-18T21:35:16.744Z,7.70
2019-02-18T21:37:46.576Z,8.73
2019-02-18T21:40:16.265Z,8.30
2019-02-18T21:42:46.078Z,9.73
2019-02-18T21:45:15.841Z,8.57
2019-02-18T21:47:45.510Z,7.80
2019-02-18T21:50:15.315Z,7.57
2019-02-18T21:52:45.241Z,13.50
2019-02-18T21:55:14.976Z,9.73
2019-02-18T21:57:44.799Z,8.35
2019-02-18T22:00:22.445Z,8.60
2019-02-18T22:02:52.220Z,8.63
2019-02-18T22:05:21.878Z,9.97
2019-02-18T22:07:51.822Z,7.47
2019-02-18T22:10:21.561Z,7.23
2019-02-18T22:12:51.241Z,10.73
2019-02-18T22:15:20.667Z,8.53
2019-02-18T22:17:50.396Z,7.07
2019-02-18T22:20:20.911Z,10.07
2019-02-18T22:22:50.456Z,9.27
2019-02-18T22:25:20.271Z,6.80
2019-02-18T22:27:49.698Z,9.03
2019-02-18T22:30:19.134Z,7.67
2019-02-18T22:32:48.409Z,8.83
2019-02-18T22:35:18.100Z,7.20
2019-02-18T22:37:47.471Z,8.00
2019-02-18T22:40:16.905Z,12.97
2019-02-18T22:42:46.246Z,8.27
2019-02-18T22:45:15.551Z,11.70
2019-02-18T22:47:44.824Z,6.60
2019-02-18T22:50:14.852Z,8.07
2019-02-18T22:52:44.132Z,8.63
2019-02-18T22:55:13.418Z,6.97
2019-02-18T22:57:42.751Z,8.07
2019-02-18T23:00:43.524Z,8.40
2019-02-18T23:03:13.045Z,8.13
2019-02-18T23:05:42.355Z,7.67
2019-02-18T23:08:11.668Z,7.73
2019-02-18T23:10:41.055Z,8.17
2019-02-18T23:13:10.436Z,8.87
2019-02-18T23:15:40.155Z,8.43
2019-02-18T23:18:09.468Z,8.37
2019-02-18T23:20:38.799Z,8.43
2019-02-18T23:23:08.147Z,6.53
2019-02-18T23:25:37.500Z,8.13
2019-02-18T23:28:06.813Z,9.40
2019-02-18T23:30:36.453Z,8.03
2019-02-18T23:33:05.850Z,6.77
2019-02-18T23:35:35.167Z,7.70
2019-02-18T23:38:04.458Z,6.63
2019-02-18T23:40:33.717Z,6.13
2019-02-18T23:43:03.013Z,6.30
2019-02-18T23:45:32.302Z,8.93
2019-02-18T23:48:01.602Z,5.73
2019-02-18T23:50:30.879Z,6.00
2019-02-18T23:53:00.178Z,6.93
2019-02-18T23:55:29.450Z,7.30
2019-02-18T23:57:58.726Z,8.17
